Time;durP1;ratioP1;P1;durP2;ratioP2;P2;SDS_P1;SDS_P2;PMS_P1;PMS_P2;Temp;Humidity;BMP_temperature;BMP_pressure;BME280_temperature;BME280_humidity;BME280_pressure;Samples;Min_cycle;Max_cycle;Signal;HPM_P1;HPM_P2
2023/05/13 00:02:07;;;;;;;;;9.00;8.00;;;;;14.94;77.96;101391.88;4962115;28;45824;-83
2023/05/13 00:04:33;;;;;;;;;7.25;6.00;;;;;15.09;77.91;101419.97;4962423;28;47720;-83
2023/05/13 00:06:58;;;;;;;;;9.50;8.75;;;;;15.07;78.14;101420.03;4979616;28;45333;-83
2023/05/13 00:09:23;;;;;;;;;10.25;10.00;;;;;15.07;78.02;101427.19;4979552;28;45723;-82
2023/05/13 00:11:49;;;;;;;;;9.50;8.50;;;;;15.02;77.97;101413.97;4974630;28;45564;-83
2023/05/13 00:14:14;;;;;;;;;8.00;8.00;;;;;15.03;78.28;101425.59;4978880;28;45348;-83
2023/05/13 00:16:39;;;;;;;;;7.50;7.50;;;;;15.10;78.18;101427.09;4981390;28;45459;-83
2023/05/13 00:19:05;;;;;;;;;8.00;8.00;;;;;15.13;78.11;101432.34;4960522;28;45305;-83
2023/05/13 00:21:31;;;;;;;;;10.75;9.50;;;;;15.00;78.41;101419.41;4979492;28;45475;-83
2023/05/13 00:23:56;;;;;;;;;10.50;10.50;;;;;15.15;78.31;101450.19;4978395;28;45276;-83
2023/05/13 00:26:21;;;;;;;;;11.25;8.00;;;;;15.04;78.12;101416.59;4975429;28;46601;-83
2023/05/13 00:28:47;;;;;;;;;7.00;7.00;;;;;15.01;78.49;101413.06;4978599;28;45532;-83
2023/05/13 00:31:12;;;;;;;;;8.00;8.00;;;;;15.23;78.33;101457.06;4974557;28;45436;-83
2023/05/13 00:33:38;;;;;;;;;9.00;8.00;;;;;15.10;78.85;101437.84;4978139;28;45277;-83
2023/05/13 00:36:03;;;;;;;;;10.00;10.00;;;;;14.99;78.49;101427.53;4985426;28;45365;-82
2023/05/13 00:38:29;;;;;;;;;9.25;5.25;;;;;15.01;78.93;101429.19;4979324;28;45568;-83
2023/05/13 00:40:54;;;;;;;;;8.50;8.50;;;;;15.19;78.59;101459.00;4978126;28;45433;-83
2023/05/13 00:43:20;;;;;;;;;9.00;8.25;;;;;14.98;78.80;101420.38;4975472;28;47081;-83
2023/05/13 00:45:45;;;;;;;;;8.50;8.50;;;;;14.98;79.17;101423.97;4979272;28;45488;-82
2023/05/13 00:48:10;;;;;;;;;10.25;8.50;;;;;14.88;78.99;101406.44;4979100;28;45477;-83
2023/05/13 00:50:37;;;;;;;;;11.25;9.25;;;;;14.85;78.73;101406.59;4974183;28;45686;-82
2023/05/13 00:53:03;;;;;;;;;12.50;11.25;;;;;15.00;78.95;101438.22;4977087;28;46350;-83
2023/05/13 00:55:29;;;;;;;;;11.25;9.75;;;;;14.90;79.19;101427.88;4970801;28;45379;-83
2023/05/13 00:57:54;;;;;;;;;12.00;9.75;;;;;15.02;78.90;101456.97;4959862;28;45453;-83
2023/05/13 01:00:20;;;;;;;;;10.25;9.50;;;;;15.05;79.32;101455.97;4979419;28;45271;-83
2023/05/13 01:02:48;;;;;;;;;11.00;11.00;;;;;15.04;79.27;101465.84;4978874;28;46030;-83
2023/05/13 01:05:18;;;;;;;;;11.25;10.75;;;;;14.82;79.37;101434.44;4979326;28;45266;-82
2023/05/13 01:07:55;;;;;;;;;12.75;10.75;;;;;15.04;79.25;101460.47;4978146;28;45327;-83
2023/05/13 01:10:32;;;;;;;;;10.25;10.25;;;;;14.80;79.29;101424.66;4977767;28;45317;-83
2023/05/13 01:13:02;;;;;;;;;15.75;13.50;;;;;14.90;79.37;101442.22;4978388;28;46275;-83
2023/05/13 01:15:29;;;;;;;;;8.25;8.00;;;;;14.80;79.33;101414.81;4959687;28;45735;-83
2023/05/13 01:17:54;;;;;;;;;11.25;10.25;;;;;15.05;79.56;101451.50;4970912;28;45310;-83
2023/05/13 01:20:22;;;;;;;;;8.25;8.25;;;;;14.88;79.64;101424.38;4978490;28;45319;-83
2023/05/13 01:22:47;;;;;;;;;11.00;11.00;;;;;14.93;79.85;101435.81;4961038;28;47762;-82
2023/05/13 01:25:12;;;;;;;;;11.50;10.25;;;;;14.74;79.75;101409.66;4972663;28;46068;-83
2023/05/13 01:27:38;;;;;;;;;13.50;13.50;;;;;14.90;79.63;101435.94;4961630;28;45457;-83
2023/05/13 01:30:05;;;;;;;;;12.00;10.75;;;;;14.75;79.84;101416.81;4978460;28;45403;-83
2023/05/13 01:32:32;;;;;;;;;13.00;12.75;;;;;14.76;80.00;101425.75;4972598;28;48125;-83
2023/05/13 01:34:58;;;;;;;;;12.25;11.25;;;;;14.92;80.29;101451.09;4984792;28;45451;-83
2023/05/13 01:37:24;;;;;;;;;9.00;9.00;;;;;14.64;80.00;101397.53;4977972;28;45478;-83
2023/05/13 01:39:50;;;;;;;;;11.25;10.25;;;;;14.78;80.17;101435.50;4968623;28;45491;-83
2023/05/13 01:42:16;;;;;;;;;10.00;10.00;;;;;14.78;80.47;101438.19;4980733;28;46670;-83
2023/05/13 01:44:43;;;;;;;;;10.75;10.00;;;;;14.87;80.55;101452.19;4964235;28;45284;-83
2023/05/13 01:47:09;;;;;;;;;8.75;7.75;;;;;14.90;80.47;101457.44;4964950;28;45313;-83
2023/05/13 01:49:34;;;;;;;;;12.75;11.75;;;;;14.73;80.56;101439.28;4982106;28;45206;-83
2023/05/13 01:52:00;;;;;;;;;8.00;7.50;;;;;14.72;80.61;101437.56;4981772;28;45588;-83
2023/05/13 01:54:25;;;;;;;;;12.25;11.00;;;;;14.82;80.66;101453.25;4980687;28;45406;-83
2023/05/13 01:56:51;;;;;;;;;10.50;10.25;;;;;14.67;80.87;101431.44;4982072;28;45324;-83
2023/05/13 01:59:17;;;;;;;;;11.50;10.75;;;;;14.63;80.69;101431.59;4981768;28;45390;-83
2023/05/13 02:01:43;;;;;;;;;12.00;11.00;;;;;14.71;80.81;101446.53;4981416;28;46226;-83
2023/05/13 02:04:09;;;;;;;;;10.75;10.75;;;;;14.69;80.94;101443.03;4980889;28;45494;-83
2023/05/13 02:06:34;;;;;;;;;13.00;10.25;;;;;14.62;80.95;101429.84;4981501;28;45368;-83
2023/05/13 02:08:59;;;;;;;;;12.75;12.75;;;;;14.66;81.09;101443.16;4988938;28;45306;-83
2023/05/13 02:11:25;;;;;;;;;12.00;10.75;;;;;14.63;80.88;101439.66;4980795;28;45560;-83
2023/05/13 02:13:50;;;;;;;;;13.00;10.00;;;;;14.69;80.88;101465.41;4980740;28;47098;-83
2023/05/13 02:16:17;;;;;;;;;12.00;12.00;;;;;14.54;81.23;101437.28;4983652;28;45250;-82
2023/05/13 02:18:42;;;;;;;;;12.75;12.75;;;;;14.57;81.21;101439.84;4963716;28;45483;-83
2023/05/13 02:21:08;;;;;;;;;18.50;15.00;;;;;14.56;81.48;101435.41;4981719;28;45501;-82
2023/05/13 02:23:33;;;;;;;;;13.00;11.50;;;;;14.71;81.40;101466.22;4981393;28;45419;-83
2023/05/13 02:25:58;;;;;;;;;12.25;12.25;;;;;14.66;81.26;101459.28;4975301;28;45293;-82
2023/05/13 02:28:24;;;;;;;;;13.50;11.50;;;;;14.53;81.70;101432.81;4981411;28;45210;-83
2023/05/13 02:30:50;;;;;;;;;15.25;13.50;;;;;14.75;81.48;101466.97;4979768;28;48078;-83
2023/05/13 02:33:15;;;;;;;;;10.00;10.00;;;;;14.76;81.52;101471.44;4980659;28;45490;-83
2023/05/13 02:35:40;;;;;;;;;11.75;11.75;;;;;14.59;81.61;101442.50;4987834;28;45358;-83
2023/05/13 02:38:08;;;;;;;;;15.75;13.50;;;;;14.52;81.37;101424.84;4963235;28;45693;-83
2023/05/13 02:40:34;;;;;;;;;16.75;15.50;;;;;14.61;81.65;101440.63;4963025;28;48106;-83
2023/05/13 02:42:59;;;;;;;;;15.50;13.50;;;;;14.71;81.89;101457.28;4978800;28;45483;-83
2023/05/13 02:45:24;;;;;;;;;13.75;13.75;;;;;14.53;81.88;101414.03;4981643;28;45388;-83
2023/05/13 02:47:50;;;;;;;;;16.25;14.25;;;;;14.67;81.84;101437.72;4962836;28;45661;-83
2023/05/13 02:50:15;;;;;;;;;13.75;12.75;;;;;14.84;81.71;101460.41;4976670;28;46410;-83
2023/05/13 02:52:41;;;;;;;;;16.25;14.00;;;;;14.65;81.86;101428.84;4957438;28;45825;-83
2023/05/13 02:55:07;;;;;;;;;16.75;15.75;;;;;14.79;81.60;101453.38;4959039;28;45279;-83
2023/05/13 02:57:33;;;;;;;;;14.25;14.25;;;;;14.68;81.73;101433.22;4963851;28;45965;-83
2023/05/13 02:59:58;;;;;;;;;15.50;14.25;;;;;14.79;81.80;101447.13;4976716;28;47380;-83
2023/05/13 03:02:23;;;;;;;;;15.75;15.75;;;;;14.65;82.07;101426.16;4974963;28;45443;-83
2023/05/13 03:04:49;;;;;;;;;20.75;17.75;;;;;14.93;81.77;101460.03;4963071;28;45308;-83
2023/05/13 03:07:14;;;;;;;;;19.25;17.25;;;;;14.77;82.11;101449.88;4968931;28;45456;-83
2023/05/13 03:09:41;;;;;;;;;16.75;16.00;;;;;14.67;81.57;101426.09;4988398;28;45656;-83
2023/05/13 03:12:07;;;;;;;;;16.25;14.00;;;;;14.67;81.80;101418.91;4962549;28;45815;-83
2023/05/13 03:14:35;;;;;;;;;19.50;19.25;;;;;14.81;81.72;101458.69;4980762;28;45404;-83
2023/05/13 03:17:01;;;;;;;;;19.25;18.00;;;;;14.84;81.88;101463.09;4975692;28;45358;-83
2023/05/13 03:19:26;;;;;;;;;16.75;16.25;;;;;14.77;81.55;101462.44;4963385;28;48097;-83
2023/05/13 03:21:52;;;;;;;;;20.75;18.25;;;;;14.69;81.81;101454.66;4980302;28;45253;-83
2023/05/13 03:24:17;;;;;;;;;21.00;17.50;;;;;14.74;81.67;101454.50;4979507;28;45446;-83
2023/05/13 03:26:43;;;;;;;;;24.00;17.75;;;;;14.68;81.87;101444.84;4980574;28;45495;-83
2023/05/13 03:29:08;;;;;;;;;19.25;19.00;;;;;14.79;82.05;101456.06;4963191;28;47421;-83
2023/05/13 03:31:33;;;;;;;;;22.25;22.25;;;;;14.79;81.95;101461.44;4978243;28;46110;-83
2023/05/13 03:33:59;;;;;;;;;22.25;22.00;;;;;14.70;81.82;101456.44;4981816;28;45450;-83
2023/05/13 03:36:24;;;;;;;;;24.75;21.50;;;;;14.58;82.13;101438.94;4982140;28;45384;-83
2023/05/13 03:38:50;;;;;;;;;23.75;22.00;;;;;14.60;81.72;101444.25;4979957;28;45371;-83
2023/05/13 03:41:16;;;;;;;;;27.00;25.00;;;;;14.57;81.97;101433.63;4962881;28;45438;-83
2023/05/13 03:43:42;;;;;;;;;33.00;28.25;;;;;14.84;82.22;101484.59;4980391;28;45340;-83
2023/05/13 03:46:08;;;;;;;;;23.75;23.75;;;;;14.60;82.22;101449.63;4962907;28;45551;-83
2023/05/13 03:48:33;;;;;;;;;32.00;28.75;;;;;14.63;82.23;101455.78;4978260;28;45625;-83
2023/05/13 03:50:58;;;;;;;;;28.75;26.75;;;;;14.78;82.45;101486.56;4979973;28;45431;-83
2023/05/13 03:53:24;;;;;;;;;36.75;32.50;;;;;14.49;82.39;101450.00;4980286;28;45300;-83
2023/05/13 03:55:49;;;;;;;;;35.00;31.75;;;;;14.56;82.70;101448.84;4978453;28;45466;-83
2023/05/13 03:58:18;;;;;;;;;33.75;30.00;;;;;14.76;82.45;101485.72;4980159;28;46275;-83
2023/05/13 04:00:46;;;;;;;;;41.25;35.75;;;;;14.65;82.44;101474.53;4977259;28;45605;-83
2023/05/13 04:03:16;;;;;;;;;46.50;39.75;;;;;14.79;82.70;101500.88;4971348;28;45461;-83
2023/05/13 04:05:42;;;;;;;;;48.25;38.25;;;;;14.72;82.97;101497.53;4962064;28;45498;-84
2023/05/13 04:08:07;;;;;;;;;50.25;40.25;;;;;14.75;83.03;101501.91;4984067;28;45249;-84
2023/05/13 04:10:32;;;;;;;;;47.75;38.50;;;;;14.64;82.79;101479.00;4962131;28;45588;-83
2023/05/13 04:12:58;;;;;;;;;46.00;38.75;;;;;14.66;83.18;101481.66;4979321;28;45564;-83
2023/05/13 04:15:23;;;;;;;;;47.50;40.50;;;;;14.60;82.74;101480.06;4981278;28;45378;-83
2023/05/13 04:17:49;;;;;;;;;47.00;40.25;;;;;14.66;83.01;101484.31;4977969;28;47206;-83
2023/05/13 04:20:15;;;;;;;;;52.25;42.25;;;;;14.60;82.79;101473.81;4962303;28;46004;-83
2023/05/13 04:22:40;;;;;;;;;49.00;41.00;;;;;14.71;82.78;101493.09;4959291;28;46487;-83
2023/05/13 04:25:06;;;;;;;;;48.75;41.00;;;;;14.75;82.79;101496.53;4978033;28;45423;-83
2023/05/13 04:27:31;;;;;;;;;48.50;41.00;;;;;14.70;82.80;101483.28;4955625;28;48336;-83
2023/05/13 04:29:57;;;;;;;;;51.50;42.50;;;;;14.75;82.40;101492.06;4962211;28;45922;-83
2023/05/13 04:32:22;;;;;;;;;50.25;41.75;;;;;14.89;82.51;101501.41;4962046;28;45424;-83
2023/05/13 04:34:50;;;;;;;;;49.75;43.25;;;;;14.73;82.66;101487.66;4961497;28;45453;-83
2023/05/13 04:37:16;;;;;;;;;50.00;42.25;;;;;14.90;82.57;101527.34;4978077;28;45217;-83
2023/05/13 04:39:45;;;;;;;;;53.50;42.25;;;;;14.71;82.65;101489.53;4961846;28;45213;-83
2023/05/13 04:42:10;;;;;;;;;52.75;43.75;;;;;14.71;82.71;101490.41;4962000;28;45520;-83
2023/05/13 04:44:35;;;;;;;;;53.75;44.50;;;;;14.85;82.76;101514.09;4979187;28;45427;-83
2023/05/13 04:47:01;;;;;;;;;53.25;43.50;;;;;14.79;82.57;101507.13;4960843;28;47924;-83
2023/05/13 04:49:26;;;;;;;;;53.75;45.50;;;;;14.72;82.90;101494.00;4977300;28;45574;-83
2023/05/13 04:51:52;;;;;;;;;56.50;44.25;;;;;14.74;82.70;101500.19;4978668;28;45282;-83
2023/05/13 04:54:17;;;;;;;;;52.25;44.00;;;;;14.79;82.82;101515.19;4978710;28;45336;-82
2023/05/13 04:56:43;;;;;;;;;51.75;43.75;;;;;14.77;82.95;101510.81;4978050;28;48268;-83
2023/05/13 04:59:08;;;;;;;;;51.50;42.75;;;;;14.64;82.62;101499.63;4979107;28;45369;-83
2023/05/13 05:01:34;;;;;;;;;52.50;43.00;;;;;14.67;82.76;101499.53;4968977;28;45502;-83
2023/05/13 05:03:59;;;;;;;;;54.00;43.50;;;;;14.63;82.81;101495.19;4979122;28;45365;-83
2023/05/13 05:06:25;;;;;;;;;56.00;42.00;;;;;14.77;82.88;101524.25;4978010;28;46220;-83
2023/05/13 05:08:50;;;;;;;;;54.25;44.25;;;;;14.62;82.83;101501.50;4971103;28;45294;-83
2023/05/13 05:11:16;;;;;;;;;53.75;42.00;;;;;14.82;82.83;101533.88;4961041;28;45224;-83
2023/05/13 05:13:41;;;;;;;;;50.25;41.75;;;;;14.78;83.21;101529.56;4951021;28;45353;-83
2023/05/13 05:16:08;;;;;;;;;51.00;42.00;;;;;14.79;82.59;101539.38;4981657;28;45413;-83
2023/05/13 05:18:39;;;;;;;;;51.50;42.75;;;;;14.68;82.87;101528.13;4982312;28;45404;-83
2023/05/13 05:21:05;;;;;;;;;48.25;41.25;;;;;14.72;82.53;101527.09;4982409;28;45436;-83
2023/05/13 05:23:31;;;;;;;;;54.75;44.25;;;;;14.67;82.76;101525.50;4964202;28;45294;-83
2023/05/13 05:25:58;;;;;;;;;54.75;45.25;;;;;14.71;82.60;101533.41;4963443;28;47320;-83
2023/05/13 05:28:23;;;;;;;;;52.25;43.00;;;;;14.75;82.50;101542.22;4982298;28;45667;-83
2023/05/13 05:30:49;;;;;;;;;52.00;43.25;;;;;14.94;82.46;101569.31;4976481;28;45281;-83
2023/05/13 05:33:14;;;;;;;;;57.50;47.00;;;;;14.77;82.15;101552.00;4964034;28;45450;-82
2023/05/13 05:35:40;;;;;;;;;51.25;42.75;;;;;14.64;82.23;101542.63;4970086;28;47306;-83
2023/05/13 05:38:07;;;;;;;;;55.50;44.25;;;;;14.73;82.52;101549.47;4980964;28;45719;-83
2023/05/13 05:40:38;;;;;;;;;50.00;42.25;;;;;14.88;82.43;101575.78;4964818;28;45399;-83
2023/05/13 05:43:03;;;;;;;;;53.25;43.75;;;;;14.72;82.30;101567.41;4964713;28;45738;-83
2023/05/13 05:45:28;;;;;;;;;53.50;44.50;;;;;14.79;82.14;101576.13;4978729;28;47086;-83
2023/05/13 05:47:54;;;;;;;;;52.25;43.00;;;;;14.80;81.87;101580.56;4964776;28;45555;-83
2023/05/13 05:50:19;;;;;;;;;52.50;42.50;;;;;14.91;81.85;101597.16;4963779;28;45326;-83
2023/05/13 05:52:45;;;;;;;;;51.50;42.00;;;;;14.73;82.12;101568.28;4964804;28;45488;-83
2023/05/13 05:55:10;;;;;;;;;52.50;42.75;;;;;14.94;82.05;101604.25;4975857;28;46064;-83
2023/05/13 05:57:35;;;;;;;;;54.00;45.50;;;;;14.76;82.31;101569.03;4977938;28;45382;-83
2023/05/13 06:00:01;;;;;;;;;52.75;42.50;;;;;15.00;81.74;101614.75;4982628;28;45253;-83
2023/05/13 06:02:26;;;;;;;;;50.25;42.00;;;;;14.79;81.59;101581.50;4982220;28;45308;-83
2023/05/13 06:04:51;;;;;;;;;52.00;42.75;;;;;14.78;81.43;101572.56;4981373;28;45228;-83
2023/05/13 06:07:17;;;;;;;;;49.25;41.75;;;;;14.93;81.69;101607.88;4981095;28;45426;-83
2023/05/13 06:09:42;;;;;;;;;51.75;42.00;;;;;14.86;81.28;101590.22;4988621;28;45356;-83
2023/05/13 06:12:07;;;;;;;;;50.25;42.25;;;;;14.86;81.31;101590.22;4981463;28;45401;-83
2023/05/13 06:14:33;;;;;;;;;52.50;43.50;;;;;14.98;82.02;101596.03;4963422;28;48175;-83
2023/05/13 06:16:58;;;;;;;;;48.75;41.75;;;;;14.92;81.15;101600.75;4964097;28;45440;-83
2023/05/13 06:19:24;;;;;;;;;52.00;42.50;;;;;14.97;80.82;101612.22;4979932;28;45423;-83
2023/05/13 06:21:49;;;;;;;;;46.75;40.75;;;;;14.89;81.34;101601.72;4963008;28;57287;-83
2023/05/13 06:24:14;;;;;;;;;58.00;44.50;;;;;14.82;81.09;101598.41;4962192;28;47031;-83
2023/05/13 06:26:40;;;;;;;;;49.00;40.75;;;;;15.04;80.94;101626.31;4946114;28;45686;-83
2023/05/13 06:29:05;;;;;;;;;48.75;41.75;;;;;14.89;80.90;101617.88;4979238;28;45339;-83
2023/05/13 06:31:30;;;;;;;;;43.00;36.25;;;;;14.78;81.12;101602.13;4980798;28;45418;-83
2023/05/13 06:33:58;;;;;;;;;51.25;42.25;;;;;14.72;81.01;101598.78;4977465;28;47437;-83
2023/05/13 06:36:23;;;;;;;;;50.50;42.75;;;;;14.73;81.03;101598.72;4984893;28;45272;-83
2023/05/13 06:38:49;;;;;;;;;48.75;38.50;;;;;14.71;80.96;101592.53;4981070;28;45328;-83
2023/05/13 06:41:15;;;;;;;;;45.25;39.00;;;;;15.06;81.12;101649.50;4962650;28;45480;-82
2023/05/13 06:43:40;;;;;;;;;49.50;40.75;;;;;14.94;81.13;101617.69;4976798;28;47196;-83
2023/05/13 06:46:05;;;;;;;;;41.50;36.25;;;;;15.10;81.23;101632.34;4975134;28;45421;-83
2023/05/13 06:48:31;;;;;;;;;49.00;40.25;;;;;15.01;80.55;101611.16;4981409;28;45522;-83
2023/05/13 06:50:56;;;;;;;;;47.25;39.50;;;;;15.08;80.82;101623.44;4973600;28;45487;-83
2023/05/13 06:53:21;;;;;;;;;50.50;42.50;;;;;15.18;80.78;101635.63;4980020;28;51628;-82
2023/05/13 06:55:47;;;;;;;;;46.00;39.75;;;;;15.23;80.64;101623.78;4977756;28;46202;-83
2023/05/13 06:58:12;;;;;;;;;44.00;37.00;;;;;15.36;80.47;101652.00;4978554;28;45332;-80
2023/05/13 07:00:38;;;;;;;;;51.50;42.75;;;;;15.40;79.98;101652.75;4977579;28;45499;-80
2023/05/13 07:03:05;;;;;;;;;51.25;42.00;;;;;15.41;80.05;101650.00;4961529;28;47134;-80
2023/05/13 07:05:32;;;;;;;;;48.25;40.75;;;;;15.44;80.01;101651.72;4963615;28;45289;-79
2023/05/13 07:07:57;;;;;;;;;48.50;39.50;;;;;15.44;79.87;101649.88;4966451;28;45350;-80
2023/05/13 07:10:22;;;;;;;;;50.50;41.00;;;;;15.39;79.31;101638.44;4983763;28;45730;-80
2023/05/13 07:12:48;;;;;;;;;47.00;36.75;;;;;15.48;79.23;101656.03;4978366;28;45612;-80
2023/05/13 07:15:13;;;;;;;;;50.00;41.00;;;;;15.43;79.45;101644.56;4981792;28;45888;-80
2023/05/13 07:17:39;;;;;;;;;41.50;36.25;;;;;15.38;79.67;101632.19;4979709;28;45246;-80
2023/05/13 07:20:05;;;;;;;;;46.00;39.00;;;;;15.51;79.35;101654.09;4987673;28;45539;-80
2023/05/13 07:22:30;;;;;;;;;50.25;41.25;;;;;15.54;79.22;101653.97;4980409;28;45318;-79
2023/05/13 07:24:56;;;;;;;;;51.25;42.50;;;;;15.60;79.27;101654.66;4982839;28;45273;-79
2023/05/13 07:27:21;;;;;;;;;56.00;45.00;;;;;15.64;79.25;101646.41;4980641;28;45301;-80
2023/05/13 07:29:47;;;;;;;;;48.25;41.00;;;;;15.68;79.49;101647.16;4980331;28;45477;-79
2023/05/13 07:32:12;;;;;;;;;50.50;42.00;;;;;15.69;79.37;101640.88;4980582;28;45421;-80
2023/05/13 07:34:37;;;;;;;;;48.75;41.00;;;;;15.64;78.76;101632.97;4984225;28;45376;-80
2023/05/13 07:37:03;;;;;;;;;49.75;41.50;;;;;15.69;78.70;101643.56;4972707;28;45483;-80
2023/05/13 07:39:29;;;;;;;;;52.50;43.75;;;;;15.73;78.19;101647.88;4979334;28;45325;-78
2023/05/13 07:41:54;;;;;;;;;50.00;41.00;;;;;15.63;78.31;101641.97;4979649;28;45388;-78
2023/05/13 07:44:20;;;;;;;;;50.50;42.25;;;;;15.63;78.09;101641.97;4980114;28;45334;-78
2023/05/13 07:46:47;;;;;;;;;50.00;41.50;;;;;15.73;78.52;101656.81;4962693;28;45307;-78
2023/05/13 07:49:12;;;;;;;;;54.25;44.50;;;;;15.67;78.20;101645.41;4977043;28;45637;-78
2023/05/13 07:51:38;;;;;;;;;53.25;41.75;;;;;15.74;78.47;101653.19;4973755;28;45474;-78
2023/05/13 07:54:03;;;;;;;;;51.00;41.00;;;;;15.74;78.11;101665.78;4960974;28;45446;-78
2023/05/13 07:56:29;;;;;;;;;50.50;42.50;;;;;15.69;78.49;101660.56;4969577;28;45318;-78
2023/05/13 07:58:54;;;;;;;;;52.25;43.00;;;;;15.62;78.16;101651.00;4978187;28;45271;-80
2023/05/13 08:01:20;;;;;;;;;53.00;43.25;;;;;15.74;77.92;101671.16;4968947;28;45317;-80
2023/05/13 08:03:45;;;;;;;;;54.75;45.25;;;;;15.67;78.15;101654.38;4973674;28;45464;-80
2023/05/13 08:06:11;;;;;;;;;55.00;45.75;;;;;15.71;78.41;101657.81;4979848;28;45460;-78
2023/05/13 08:08:36;;;;;;;;;52.25;42.75;;;;;15.80;78.37;101673.63;4985019;28;45260;-78
2023/05/13 08:11:01;;;;;;;;;54.50;44.25;;;;;15.78;78.50;101666.56;4977926;28;49001;-78
2023/05/13 08:13:27;;;;;;;;;55.75;45.00;;;;;15.81;78.39;101679.91;4963994;28;46028;-79
2023/05/13 08:15:52;;;;;;;;;52.00;42.50;;;;;15.79;78.38;101665.66;4974559;28;45438;-79
2023/05/13 08:18:18;;;;;;;;;53.75;44.75;;;;;15.81;78.09;101671.84;4976531;28;45427;-83
2023/05/13 08:20:43;;;;;;;;;57.25;46.00;;;;;15.69;78.15;101663.25;4984810;28;48292;-77
2023/05/13 08:23:08;;;;;;;;;63.00;48.50;;;;;15.76;78.36;101681.91;4977823;28;45343;-79
2023/05/13 08:25:34;;;;;;;;;58.50;47.25;;;;;15.71;78.54;101680.22;4965617;28;45337;-79
2023/05/13 08:27:59;;;;;;;;;60.00;48.25;;;;;15.63;78.60;101657.25;4980111;28;45376;-79
2023/05/13 08:30:24;;;;;;;;;58.75;47.50;;;;;15.80;78.22;101687.09;4978534;28;46042;-77
2023/05/13 08:32:49;;;;;;;;;58.25;46.75;;;;;15.71;78.36;101660.50;4979122;28;45545;-77
2023/05/13 08:35:15;;;;;;;;;62.00;49.25;;;;;15.74;78.69;101671.16;4991768;28;45562;-78
2023/05/13 08:37:40;;;;;;;;;57.75;46.75;;;;;15.86;78.44;101678.78;4980200;28;45285;-78
2023/05/13 08:40:07;;;;;;;;;56.50;45.50;;;;;15.86;78.66;101670.69;4979319;28;45216;-78
2023/05/13 08:42:32;;;;;;;;;59.75;47.00;;;;;15.91;78.29;101676.78;4979372;28;45253;-78
2023/05/13 08:45:02;;;;;;;;;59.75;49.00;;;;;15.87;78.12;101672.47;4979677;28;45334;-78
2023/05/13 08:47:48;;;;;;;;;66.50;51.25;;;;;15.86;77.73;101677.91;4978850;28;45435;-78
2023/05/13 08:50:13;;;;;;;;;60.50;49.00;;;;;15.89;77.92;101685.88;4975778;28;45484;-78
2023/05/13 08:52:39;;;;;;;;;55.00;45.25;;;;;15.87;78.13;101685.94;4982740;28;45378;-78
2023/05/13 08:55:05;;;;;;;;;61.50;49.00;;;;;15.89;77.86;101672.41;4980746;28;45345;-78
2023/05/13 08:57:31;;;;;;;;;63.00;49.75;;;;;15.83;78.40;101660.06;4981594;28;45336;-78
2023/05/13 08:59:57;;;;;;;;;58.75;47.25;;;;;15.91;78.07;101670.53;4973582;28;47508;-78
2023/05/13 09:02:22;;;;;;;;;63.75;49.00;;;;;15.97;78.26;101670.28;4981879;28;45456;-79
2023/05/13 09:04:52;;;;;;;;;60.75;49.75;;;;;16.04;78.18;101679.00;4982907;28;45278;-79
2023/05/13 09:07:17;;;;;;;;;58.75;47.00;;;;;15.98;77.72;101663.94;4981980;28;45432;-79
2023/05/13 09:09:43;;;;;;;;;63.00;48.50;;;;;16.06;77.90;101674.41;4983710;28;46126;-79
2023/05/13 09:12:09;;;;;;;;;58.00;46.75;;;;;16.05;77.96;101669.97;4982328;28;45371;-79
2023/05/13 09:14:36;;;;;;;;;63.00;49.25;;;;;16.06;77.76;101667.22;4965087;28;45473;-79
2023/05/13 09:17:02;;;;;;;;;54.00;45.25;;;;;16.07;78.27;101658.19;4983538;28;45377;-79
2023/05/13 09:19:27;;;;;;;;;54.00;44.75;;;;;16.11;78.15;101669.72;4981095;28;45372;-79
2023/05/13 09:21:53;;;;;;;;;63.00;50.50;;;;;16.24;77.61;101681.75;4982349;28;45323;-79
2023/05/13 09:24:20;;;;;;;;;56.75;44.50;;;;;16.28;77.33;101693.28;4982198;28;45269;-79
2023/05/13 09:26:47;;;;;;;;;58.25;46.75;;;;;16.28;77.76;101694.13;4982327;28;45297;-79
2023/05/13 09:29:28;;;;;;;;;57.50;47.00;;;;;16.32;77.38;101694.00;4970396;28;45304;-79
2023/05/13 09:31:56;;;;;;;;;58.00;45.50;;;;;16.15;77.35;101670.47;4982334;28;45269;-79
2023/05/13 09:34:26;;;;;;;;;62.25;49.75;;;;;16.34;76.73;101701.09;4982999;28;45296;-79
2023/05/13 09:36:56;;;;;;;;;59.00;45.50;;;;;16.20;76.93;101674.72;4964368;28;45854;-79
2023/05/13 09:39:21;;;;;;;;;58.50;47.50;;;;;16.36;76.85;101693.84;4981644;28;46506;-79
2023/05/13 09:41:47;;;;;;;;;56.25;46.00;;;;;16.39;76.91;101701.78;4964772;28;45367;-79
2023/05/13 09:44:12;;;;;;;;;55.75;45.00;;;;;16.41;76.65;101697.22;4971938;28;45355;-79
2023/05/13 09:46:37;;;;;;;;;58.00;46.50;;;;;16.44;76.31;101709.69;4972552;28;45394;-79
2023/05/13 09:49:03;;;;;;;;;60.50;48.00;;;;;16.40;76.10;101681.97;4980504;28;45333;-79
2023/05/13 09:51:30;;;;;;;;;50.25;42.50;;;;;16.44;76.18;101685.44;4980797;28;45431;-79
2023/05/13 09:54:03;;;;;;;;;56.75;44.25;;;;;16.52;76.16;101691.34;4981355;28;45397;-79
2023/05/13 09:56:29;;;;;;;;;58.25;46.25;;;;;16.49;76.22;101676.22;4981954;28;45285;-79
2023/05/13 09:58:55;;;;;;;;;61.50;49.75;;;;;16.52;76.39;101674.31;4981808;28;46111;-79
2023/05/13 10:01:21;;;;;;;;;58.25;47.75;;;;;16.60;76.66;101682.97;4981533;28;45342;-79
2023/05/13 10:03:47;;;;;;;;;56.25;45.75;;;;;16.62;76.01;101679.28;4980788;28;45302;-79
2023/05/13 10:06:16;;;;;;;;;56.00;44.00;;;;;16.69;76.10;101679.88;4981869;28;45290;-79
2023/05/13 10:08:46;;;;;;;;;58.25;46.25;;;;;16.66;74.99;101672.78;4982336;28;47600;-79
2023/05/13 10:11:14;;;;;;;;;56.75;46.25;;;;;16.75;74.62;101684.13;4981542;28;45460;-79
2023/05/13 10:13:41;;;;;;;;;51.50;41.50;;;;;16.76;75.36;101673.28;4979834;28;45495;-78
2023/05/13 10:16:07;;;;;;;;;54.00;44.00;;;;;16.69;74.94;101650.22;4979901;28;45409;-78
2023/05/13 10:18:32;;;;;;;;;54.75;45.00;;;;;16.87;75.74;101669.25;4980350;28;45525;-79
2023/05/13 10:20:58;;;;;;;;;53.25;44.00;;;;;16.88;75.62;101662.94;4981409;28;45396;-78
2023/05/13 10:23:23;;;;;;;;;52.50;43.00;;;;;16.87;74.92;101658.47;4981121;28;45897;-78
2023/05/13 10:25:54;;;;;;;;;54.00;44.75;;;;;16.92;74.73;101661.84;4979276;28;45472;-79
2023/05/13 10:28:20;;;;;;;;;52.25;43.50;;;;;17.02;74.73;101666.78;4957491;28;48073;-79
2023/05/13 10:30:48;;;;;;;;;49.25;39.50;;;;;17.01;74.06;101658.75;4981135;28;45302;-79
2023/05/13 10:33:15;;;;;;;;;51.25;42.50;;;;;17.09;74.31;101669.16;4960865;28;45604;-77
2023/05/13 10:35:55;;;;;;;;;54.75;44.00;;;;;17.14;74.57;101662.66;4973564;28;45467;-78
2023/05/13 10:38:39;;;;;;;;;55.75;44.75;;;;;17.24;74.32;101665.81;4980486;28;45352;-78
2023/05/13 10:41:25;;;;;;;;;53.25;43.75;;;;;17.23;73.56;101650.56;4963690;28;45251;-78
2023/05/13 10:43:57;;;;;;;;;55.25;44.25;;;;;17.33;74.10;101649.16;4981235;28;45553;-78
2023/05/13 10:46:23;;;;;;;;;47.50;39.00;;;;;17.39;73.32;101664.19;4980460;28;45286;-76
2023/05/13 10:48:53;;;;;;;;;56.00;44.00;;;;;17.43;73.38;101652.31;4979575;28;45243;-78
2023/05/13 10:51:22;;;;;;;;;56.75;45.00;;;;;17.44;72.98;101647.78;4953628;28;45682;-78
2023/05/13 10:53:53;;;;;;;;;53.00;43.25;;;;;17.48;74.04;101639.50;4943970;28;45288;-78
2023/05/13 10:56:20;;;;;;;;;49.50;41.75;;;;;17.54;73.27;101649.09;4981052;28;45476;-78
2023/05/13 10:59:05;;;;;;;;;55.00;45.00;;;;;17.58;73.71;101645.34;4963706;28;47818;-78
2023/05/13 11:01:37;;;;;;;;;54.00;44.25;;;;;17.66;72.37;101643.16;4977547;28;45632;-78
2023/05/13 11:04:04;;;;;;;;;53.25;44.25;;;;;17.66;72.31;101634.16;4981095;28;45327;-78
2023/05/13 11:06:37;;;;;;;;;52.25;41.75;;;;;17.71;72.47;101638.41;4962967;28;45518;-78